Stations météo

réclame
Mon MeteoGroup
Bari, Italie (16271): Température de l'air & dewpoint: 13.06.2018 02:00:00 - 19.06.2018 02:00:00 (CEST)Bari, Italie (16271): Vitesse du vent: 13.06.2018 02:00:00 - 19.06.2018 02:00:00 (CEST)Bari, Italie (16271): Direction du vent: 13.06.2018 02:00:00 - 19.06.2018 02:00:00 (CEST)Bari, Italie (16271): reduced air pressure: 13.06.2018 02:00:00 - 19.06.2018 02:00:00 (CEST)Bari, Italie (16271): Quantités de précipitations: 13.06.2018 02:00:00 - 19.06.2018 02:00:00 (CEST)
Date & Time tt [°C] td [°C] ff [km/h] ff [knt] dd ppp [hPa] rr [mm]
19.06.2018 02:00:00 - - - - - - -
19.06.2018 01:00:00 24,3 17,7 13 7 W 1013,2 -
19.06.2018 00:00:00 24,8 18,4 15 8 W 1013,2 -
18.06.2018 23:00:00 25,2 18,6 11 6 W 1013,3 -
18.06.2018 22:00:00 24,7 19,5 8 4 W 1013,2 -
18.06.2018 21:00:00 24,9 18,0 18 10 W 1012,6 -
18.06.2018 20:00:00 24,8 18,9 18 10 W 1012,2 0,0
18.06.2018 19:00:00 25,4 18,5 18 10 W 1012,1 -
18.06.2018 18:00:00 25,6 19,0 21 11 W 1012,2 -
18.06.2018 17:00:00 25,4 21,4 24 13 W 1012,1 -
18.06.2018 16:00:00 25,6 21,6 26 14 W 1011,9 -
18.06.2018 15:00:00 25,8 19,6 24 13 W 1011,9 -
18.06.2018 14:00:00 25,9 19,7 22 12 W 1012,0 0,0
18.06.2018 13:00:00 26,1 19,4 22 12 W 1012,3 -
18.06.2018 12:00:00 25,4 18,3 18 10 W 1012,5 -
18.06.2018 11:00:00 25,1 17,5 22 12 W 1012,4 -
18.06.2018 10:00:00 24,6 16,8 18 10 W 1012,3 -
18.06.2018 09:00:00 24,2 16,6 16 9 W 1012,1 -
18.06.2018 08:00:00 23,5 16,5 11 6 W 1011,8 0,0
18.06.2018 07:00:00 22,4 16,6 13 7 W 1011,7 -
18.06.2018 06:00:00 21,9 15,6 16 9 W 1011,6 -
18.06.2018 05:00:00 21,8 16,2 16 9 W 1011,5 -
18.06.2018 04:00:00 22,1 16,3 15 8 W 1011,5 -
18.06.2018 03:00:00 22,0 16,2 9 5 W 1011,6 -
18.06.2018 02:00:00 22,3 16,0 15 8 W 1011,7 0,0
18.06.2018 01:00:00 22,8 16,7 11 6 W 1012,1 -
18.06.2018 00:00:00 23,7 17,4 5 3 W 1012,5 -
17.06.2018 23:00:00 24,0 18,1 16 9 W 1012,8 -
17.06.2018 22:00:00 23,9 18,0 15 8 W 1012,8 -
17.06.2018 21:00:00 24,0 20,1 21 11 W 1012,3 -
17.06.2018 20:00:00 24,6 20,4 21 11 W 1011,8 0,0
17.06.2018 19:00:00 25,5 19,1 18 10 W 1011,4 -
17.06.2018 18:00:00 25,8 19,6 15 8 W 1011,1 -
17.06.2018 17:00:00 26,0 20,0 18 10 W 1011,4 -
17.06.2018 16:00:00 26,1 18,4 16 9 W 1011,6 -
17.06.2018 15:00:00 25,5 19,1 22 12 W 1011,9 -
17.06.2018 14:00:00 25,6 18,7 22 12 W 1012,1 0,0
17.06.2018 13:00:00 25,3 18,2 22 12 W 1012,4 -
17.06.2018 12:00:00 24,8 18,4 21 11 W 1012,3 -
17.06.2018 11:00:00 24,4 17,6 26 14 W 1012,1 -
17.06.2018 10:00:00 24,4 17,6 18 10 W 1011,8 -
17.06.2018 09:00:00 24,0 16,9 9 5 W 1011,7 -
17.06.2018 08:00:00 22,6 16,3 11 6 W 1011,4 0,0
17.06.2018 07:00:00 21,5 15,9 11 6 W 1011,0 -
17.06.2018 06:00:00 21,1 15,6 16 9 W 1010,8 -
17.06.2018 05:00:00 21,2 15,9 16 9 W 1010,5 -
17.06.2018 04:00:00 21,2 15,7 13 7 W 1010,6 -
17.06.2018 03:00:00 21,3 15,7 15 8 W 1010,5 -
17.06.2018 02:00:00 21,7 15,7 16 9 W 1010,6 0,0
17.06.2018 01:00:00 22,0 16,0 13 7 W 1010,8 -
17.06.2018 00:00:00 22,2 15,7 11 6 W 1010,8 -
16.06.2018 23:00:00 23,7 17,1 31 17 W 1010,5 -
16.06.2018 22:00:00 23,5 17,4 28 15 W 1010,4 -
16.06.2018 21:00:00 23,7 17,4 24 13 W 1009,8 -
16.06.2018 20:00:00 23,9 18,5 26 14 W 1009,4 0,0
16.06.2018 19:00:00 24,1 18,2 26 14 W 1009,1 -
16.06.2018 18:00:00 24,6 18,2 26 14 W 1008,9 -
16.06.2018 17:00:00 24,5 16,4 28 15 NW 1008,9 -
16.06.2018 16:00:00 24,6 18,0 29 16 NW 1009,1 -
16.06.2018 15:00:00 24,7 18,6 29 16 NW 1009,2 -
16.06.2018 14:00:00 24,5 18,1 28 15 NW 1009,2 0,0
16.06.2018 13:00:00 24,4 17,8 35 19 NW 1009,6 -
16.06.2018 12:00:00 24,0 17,9 26 14 NW 1009,5 -
16.06.2018 11:00:00 23,4 17,3 24 13 NW 1009,4 -
16.06.2018 10:00:00 22,7 17,1 15 8 NW 1009,2 -
16.06.2018 09:00:00 21,0 17,7 16 9 W 1009,1 -
16.06.2018 08:00:00 19,4 15,4 21 11 W 1008,9 -
16.06.2018 07:00:00 20,5 15,6 16 9 W 1008,8 -
16.06.2018 06:00:00 20,0 15,1 21 11 W 1008,3 -
16.06.2018 05:00:00 20,4 15,5 18 10 W 1007,6 -
16.06.2018 04:00:00 20,2 15,1 21 11 W 1007,9 -
16.06.2018 03:00:00 20,6 15,1 22 12 W 1008,3 -
16.06.2018 02:00:00 20,7 14,9 18 10 W 1008,5 0,0
16.06.2018 01:00:00 20,9 15,6 18 10 W 1008,8 -
16.06.2018 00:00:00 21,1 15,8 15 8 W 1008,5 -
15.06.2018 23:00:00 22,7 16,4 24 13 W 1008,4 -
15.06.2018 22:00:00 23,2 16,9 31 17 NW 1008,3 -
15.06.2018 21:00:00 23,1 17,0 35 19 NW 1008,0 -
15.06.2018 20:00:00 23,2 17,4 35 19 NW 1007,8 -
15.06.2018 19:00:00 23,3 17,0 34 18 NW 1007,4 -
15.06.2018 18:00:00 23,4 17,1 39 21 NW 1007,1 -
15.06.2018 17:00:00 23,6 17,3 34 18 NW 1007,3 -
15.06.2018 16:00:00 21,7 18,8 13 7 NW 1007,5 -
15.06.2018 15:00:00 20,5 16,3 13 7 W 1007,6 -
15.06.2018 14:00:00 19,7 18,0 13 7 NW 1007,7 -
15.06.2018 13:00:00 19,1 17,0 13 7 S 1008,1 -
15.06.2018 12:00:00 19,1 17,0 9 5 W 1007,9 -
15.06.2018 11:00:00 17,9 16,0 9 5 NW 1007,9 -
15.06.2018 10:00:00 16,8 14,9 15 8 W 1007,9 -
15.06.2018 09:00:00 19,1 15,1 18 10 W 1006,1 -
15.06.2018 08:00:00 20,6 17,2 15 8 W 1006,2 -
15.06.2018 07:00:00 19,8 15,8 16 9 W 1005,9 -
15.06.2018 06:00:00 19,4 15,4 18 10 W 1006,0 -
15.06.2018 05:00:00 19,4 16,2 16 9 W 1005,7 -
15.06.2018 04:00:00 19,0 15,0 8 4 W 1005,9 -
15.06.2018 03:00:00 19,5 14,7 16 9 W 1006,1 -
15.06.2018 02:00:00 20,4 17,0 9 5 W 1006,8 -
15.06.2018 01:00:00 21,1 15,8 2 1 W 1006,5 -
15.06.2018 00:00:00 21,0 15,2 8 4 W 1006,6 -
14.06.2018 23:00:00 21,7 15,9 16 9 W 1006,4 -
14.06.2018 22:00:00 23,0 16,7 13 7 NW 1006,3 -
14.06.2018 21:00:00 23,0 16,7 8 4 NW 1005,7 -
14.06.2018 20:00:00 23,0 16,7 15 8 NW 1005,6 -
14.06.2018 19:00:00 23,6 17,3 13 7 NW 1005,3 -
14.06.2018 18:00:00 23,7 17,8 9 5 NW 1005,4 -
14.06.2018 17:00:00 23,1 17,0 9 5 NW 1005,3 -
14.06.2018 16:00:00 22,2 16,4 5 3 W 1005,1 -
14.06.2018 15:00:00 22,3 16,7 11 6 W 1006,0 -
14.06.2018 14:00:00 23,3 17,4 24 13 NW 1006,2 -
14.06.2018 13:00:00 24,5 17,4 22 12 NW 1005,5 -
14.06.2018 12:00:00 25,4 18,8 21 11 NW 1005,0 -
14.06.2018 11:00:00 25,1 18,5 5 3 NW 1005,0 -
14.06.2018 10:00:00 23,1 17,5 2 1 NW 1005,2 -
14.06.2018 09:00:00 22,8 16,5 8 4 NW 1005,4 -
14.06.2018 08:00:00 22,5 16,7 9 5 W 1005,1 0,0
14.06.2018 07:00:00 22,2 16,4 9 5 NW 1004,6 -
14.06.2018 06:00:00 22,2 16,4 9 5 W 1004,6 -
14.06.2018 05:00:00 22,3 16,9 9 5 W 1004,6 -
14.06.2018 04:00:00 22,7 17,5 9 5 NW 1004,5 -
14.06.2018 03:00:00 22,8 16,7 8 4 W 1004,9 -
14.06.2018 02:00:00 22,8 17,0 5 3 S 1005,5 0,0
14.06.2018 01:00:00 22,9 16,8 9 5 W 1005,7 -
14.06.2018 00:00:00 22,7 17,5 11 6 W 1005,7 -
13.06.2018 23:00:00 23,9 18,7 16 9 NW 1006,0 -
13.06.2018 22:00:00 24,3 18,2 22 12 NW 1005,7 -
13.06.2018 21:00:00 24,7 18,1 15 8 NW 1005,0 -
13.06.2018 20:00:00 24,7 18,3 24 13 W 1004,6 0,0
13.06.2018 19:00:00 25,2 18,8 24 13 W 1004,6 -
13.06.2018 18:00:00 25,6 18,7 21 11 NW 1004,3 -
13.06.2018 17:00:00 25,6 17,7 21 11 W 1004,7 -
13.06.2018 16:00:00 26,9 16,7 18 10 NW 1004,9 -
13.06.2018 15:00:00 27,8 17,3 18 10 NW 1005,0 -
13.06.2018 14:00:00 28,0 17,8 22 12 NW 1005,3 0,0
13.06.2018 13:00:00 26,9 17,3 24 13 NW 1006,2 -
13.06.2018 12:00:00 26,7 15,0 26 14 NW 1006,5 -
13.06.2018 11:00:00 26,4 14,1 28 15 NW 1006,5 -
13.06.2018 10:00:00 26,9 11,0 21 11 NW 1006,8 -
13.06.2018 09:00:00 25,9 10,9 28 15 NW 1006,6 -
13.06.2018 08:00:00 24,9 11,4 18 10 W 1006,4 0,0
13.06.2018 07:00:00 23,5 13,0 21 11 W 1006,5 -
13.06.2018 06:00:00 23,2 13,9 8 4 W 1007,0 -
13.06.2018 05:00:00 23,6 14,5 21 11 W 1006,7 -
13.06.2018 04:00:00 24,3 14,9 15 8 W 1006,8 -
13.06.2018 03:00:00 24,6 14,6 21 11 S 1007,1 -
13.06.2018 02:00:00 25,6 14,3 16 9 W 1007,2 0,0

tt = Température de l'air
td = dewpoint
ff = Vitesse du vent
dd = Direction du vent
ppp = reduced air pressure
rr = Quantités de précipitations

stations d'obs. à proximité